sensor_id;sensor_type;location;lat;lon;timestamp;pressure;altitude;pressure_sealevel;temperature;humidity
5755;BME280;2902;42.130;24.732;2023-03-20T00:01:58;99959.63;;;9.02;68.21
5755;BME280;2902;42.130;24.732;2023-03-20T00:04:25;99955.75;;;8.90;68.41
5755;BME280;2902;42.130;24.732;2023-03-20T00:06:52;99956.81;;;8.73;69.13
5755;BME280;2902;42.130;24.732;2023-03-20T00:09:19;99951.63;;;8.49;69.86
5755;BME280;2902;42.130;24.732;2023-03-20T00:11:48;99949.72;;;8.27;70.73
5755;BME280;2902;42.130;24.732;2023-03-20T00:14:17;99943.25;;;8.13;71.73
5755;BME280;2902;42.130;24.732;2023-03-20T00:16:47;99936.34;;;7.96;71.71
5755;BME280;2902;42.130;24.732;2023-03-20T00:19:15;99926.31;;;7.84;71.79
5755;BME280;2902;42.130;24.732;2023-03-20T00:21:43;99928.94;;;7.92;72.06
5755;BME280;2902;42.130;24.732;2023-03-20T00:24:10;99929.59;;;7.94;72.88
5755;BME280;2902;42.130;24.732;2023-03-20T00:26:37;99933.22;;;8.01;72.51
5755;BME280;2902;42.130;24.732;2023-03-20T00:29:04;99937.81;;;8.07;72.69
5755;BME280;2902;42.130;24.732;2023-03-20T00:31:33;99934.22;;;8.00;72.88
5755;BME280;2902;42.130;24.732;2023-03-20T00:34:04;99929.88;;;8.07;71.66
5755;BME280;2902;42.130;24.732;2023-03-20T00:36:31;99933.22;;;8.01;72.14
5755;BME280;2902;42.130;24.732;2023-03-20T00:38:58;99926.94;;;8.02;72.14
5755;BME280;2902;42.130;24.732;2023-03-20T00:41:27;99920.31;;;8.06;72.36
5755;BME280;2902;42.130;24.732;2023-03-20T00:43:58;99923.94;;;8.13;71.95
5755;BME280;2902;42.130;24.732;2023-03-20T00:46:27;99916.31;;;8.10;71.15
5755;BME280;2902;42.130;24.732;2023-03-20T00:48:55;99923.09;;;8.12;71.49
5755;BME280;2902;42.130;24.732;2023-03-20T00:51:23;99915.00;;;8.06;71.88
5755;BME280;2902;42.130;24.732;2023-03-20T00:53:49;99920.44;;;8.12;72.12
5755;BME280;2902;42.130;24.732;2023-03-20T00:56:31;99914.81;;;8.15;71.30
5755;BME280;2902;42.130;24.732;2023-03-20T00:58:59;99913.34;;;8.13;71.12
5755;BME280;2902;42.130;24.732;2023-03-20T01:01:27;99911.50;;;8.13;72.26
5755;BME280;2902;42.130;24.732;2023-03-20T01:03:54;99905.41;;;8.13;71.04
5755;BME280;2902;42.130;24.732;2023-03-20T01:06:20;99915.31;;;8.19;71.37
5755;BME280;2902;42.130;24.732;2023-03-20T01:08:49;99917.31;;;8.17;72.01
5755;BME280;2902;42.130;24.732;2023-03-20T01:11:19;99918.66;;;8.21;70.82
5755;BME280;2902;42.130;24.732;2023-03-20T01:13:47;99904.41;;;8.22;71.39
5755;BME280;2902;42.130;24.732;2023-03-20T01:16:19;99905.72;;;8.26;70.55
5755;BME280;2902;42.130;24.732;2023-03-20T01:18:47;99902.78;;;8.21;70.64
5755;BME280;2902;42.130;24.732;2023-03-20T01:21:14;99882.13;;;8.00;71.64
5755;BME280;2902;42.130;24.732;2023-03-20T01:23:41;99898.81;;;8.09;71.38
5755;BME280;2902;42.130;24.732;2023-03-20T01:26:19;99899.47;;;8.03;72.40
5755;BME280;2902;42.130;24.732;2023-03-20T01:28:47;99897.50;;;8.05;71.42
5755;BME280;2902;42.130;24.732;2023-03-20T01:31:15;99897.50;;;8.05;71.83
5755;BME280;2902;42.130;24.732;2023-03-20T01:33:42;99899.16;;;8.06;71.95
5755;BME280;2902;42.130;24.732;2023-03-20T01:36:09;99898.16;;;7.99;71.77
5755;BME280;2902;42.130;24.732;2023-03-20T01:38:37;99883.47;;;7.96;72.26
5755;BME280;2902;42.130;24.732;2023-03-20T01:41:06;99890.56;;;8.04;71.19
5755;BME280;2902;42.130;24.732;2023-03-20T01:43:36;99891.53;;;8.03;70.92
5755;BME280;2902;42.130;24.732;2023-03-20T01:46:13;99899.16;;;8.06;70.93
5755;BME280;2902;42.130;24.732;2023-03-20T01:48:57;99893.56;;;7.93;71.85
5755;BME280;2902;42.130;24.732;2023-03-20T01:51:26;99887.59;;;7.91;72.31
5755;BME280;2902;42.130;24.732;2023-03-20T01:53:57;99887.16;;;7.79;72.16
5755;BME280;2902;42.130;24.732;2023-03-20T01:56:25;99879.72;;;7.75;72.44
5755;BME280;2902;42.130;24.732;2023-03-20T01:58:58;99882.19;;;7.68;72.54
5755;BME280;2902;42.130;24.732;2023-03-20T02:01:26;99890.34;;;7.59;72.39
5755;BME280;2902;42.130;24.732;2023-03-20T02:03:54;99884.06;;;7.52;72.80
5755;BME280;2902;42.130;24.732;2023-03-20T02:06:23;99886.69;;;7.52;72.66
5755;BME280;2902;42.130;24.732;2023-03-20T02:08:51;99884.38;;;7.49;72.90
5755;BME280;2902;42.130;24.732;2023-03-20T02:11:20;99882.75;;;7.48;72.83
5755;BME280;2902;42.130;24.732;2023-03-20T02:13:50;99879.78;;;7.43;73.20
5755;BME280;2902;42.130;24.732;2023-03-20T02:16:19;99888.03;;;7.48;73.66
5755;BME280;2902;42.130;24.732;2023-03-20T02:18:47;99879.25;;;7.47;73.74
5755;BME280;2902;42.130;24.732;2023-03-20T02:27:33;99888.19;;;7.46;73.23
5755;BME280;2902;42.130;24.732;2023-03-20T02:30:27;99875.81;;;7.47;73.11
5755;BME280;2902;42.130;24.732;2023-03-20T02:36:42;99872.97;;;7.48;72.83
5755;BME280;2902;42.130;24.732;2023-03-20T02:39:50;99874.81;;;7.48;73.39
5755;BME280;2902;42.130;24.732;2023-03-20T02:42:28;99870.00;;;7.51;72.80
5755;BME280;2902;42.130;24.732;2023-03-20T02:45:03;99845.06;;;7.38;72.45
5755;BME280;2902;42.130;24.732;2023-03-20T02:47:36;99868.84;;;7.54;72.49
5755;BME280;2902;42.130;24.732;2023-03-20T02:50:12;99871.50;;;7.54;73.01
5755;BME280;2902;42.130;24.732;2023-03-20T02:52:46;99869.69;;;7.54;73.19
5755;BME280;2902;42.130;24.732;2023-03-20T02:55:20;99869.19;;;7.51;73.26
5755;BME280;2902;42.130;24.732;2023-03-20T02:57:57;99870.16;;;7.50;72.92
5755;BME280;2902;42.130;24.732;2023-03-20T03:00:30;99872.97;;;7.48;73.41
5755;BME280;2902;42.130;24.732;2023-03-20T03:03:05;99867.88;;;7.39;73.60
5755;BME280;2902;42.130;24.732;2023-03-20T03:05:37;99869.53;;;7.40;74.15
5755;BME280;2902;42.130;24.732;2023-03-20T03:08:07;99865.09;;;7.40;74.27
5755;BME280;2902;42.130;24.732;2023-03-20T03:10:42;99857.66;;;7.36;73.66
5755;BME280;2902;42.130;24.732;2023-03-20T03:13:13;99865.56;;;7.36;74.12
5755;BME280;2902;42.130;24.732;2023-03-20T03:15:43;99858.97;;;7.32;74.20
5755;BME280;2902;42.130;24.732;2023-03-20T03:18:13;99866.25;;;7.22;74.91
5755;BME280;2902;42.130;24.732;2023-03-20T03:20:42;99864.75;;;7.11;74.65
5755;BME280;2902;42.130;24.732;2023-03-20T03:23:18;99858.66;;;7.03;76.21
5755;BME280;2902;42.130;24.732;2023-03-20T03:25:48;99866.56;;;7.03;75.46
5755;BME280;2902;42.130;24.732;2023-03-20T03:28:22;99863.25;;;6.93;75.43
5755;BME280;2902;42.130;24.732;2023-03-20T03:30:51;99852.84;;;6.75;76.97
5755;BME280;2902;42.130;24.732;2023-03-20T03:33:21;99876.09;;;6.80;76.81
5755;BME280;2902;42.130;24.732;2023-03-20T03:35:50;99859.59;;;6.70;76.29
5755;BME280;2902;42.130;24.732;2023-03-20T03:38:27;99863.38;;;6.67;76.74
5755;BME280;2902;42.130;24.732;2023-03-20T03:41:07;99866.47;;;6.55;77.81
5755;BME280;2902;42.130;24.732;2023-03-20T03:43:41;99871.44;;;6.58;77.96
5755;BME280;2902;42.130;24.732;2023-03-20T03:46:13;99870.63;;;6.57;77.70
5755;BME280;2902;42.130;24.732;2023-03-20T03:48:45;99866.00;;;6.51;76.97
5755;BME280;2902;42.130;24.732;2023-03-20T03:51:15;99850.44;;;6.32;78.31
5755;BME280;2902;42.130;24.732;2023-03-20T03:53:46;99871.41;;;6.42;78.03
5755;BME280;2902;42.130;24.732;2023-03-20T03:56:19;99851.09;;;6.26;77.88
5755;BME280;2902;42.130;24.732;2023-03-20T03:58:52;99862.78;;;6.24;78.62
5755;BME280;2902;42.130;24.732;2023-03-20T04:01:21;99874.78;;;6.18;78.26
5755;BME280;2902;42.130;24.732;2023-03-20T04:03:52;99877.53;;;6.09;78.46
5755;BME280;2902;42.130;24.732;2023-03-20T04:06:21;99870.25;;;6.03;78.57
5755;BME280;2902;42.130;24.732;2023-03-20T04:08:50;99870.53;;;5.92;78.69
5755;BME280;2902;42.130;24.732;2023-03-20T04:11:19;99880.59;;;5.96;79.41
5755;BME280;2902;42.130;24.732;2023-03-20T04:13:49;99876.16;;;5.97;78.72
5755;BME280;2902;42.130;24.732;2023-03-20T04:16:17;99870.84;;;5.89;78.42
5755;BME280;2902;42.130;24.732;2023-03-20T04:18:44;99857.38;;;5.92;78.87
5755;BME280;2902;42.130;24.732;2023-03-20T04:21:12;99869.59;;;6.01;78.47
5755;BME280;2902;42.130;24.732;2023-03-20T04:23:40;99867.25;;;5.98;78.07
5755;BME280;2902;42.130;24.732;2023-03-20T04:26:07;99869.59;;;6.01;77.10
5755;BME280;2902;42.130;24.732;2023-03-20T04:28:35;99872.28;;;6.09;77.66
5755;BME280;2902;42.130;24.732;2023-03-20T04:31:02;99864.56;;;6.15;77.83
5755;BME280;2902;42.130;24.732;2023-03-20T04:33:29;99875.94;;;6.16;77.17
5755;BME280;2902;42.130;24.732;2023-03-20T04:35:56;99861.75;;;6.17;78.18
5755;BME280;2902;42.130;24.732;2023-03-20T04:38:23;99873.00;;;6.27;77.82
5755;BME280;2902;42.130;24.732;2023-03-20T04:40:50;99868.56;;;6.27;77.39
5755;BME280;2902;42.130;24.732;2023-03-20T04:43:20;99869.81;;;6.15;77.71
5755;BME280;2902;42.130;24.732;2023-03-20T04:45:48;99870.31;;;6.19;78.65
5755;BME280;2902;42.130;24.732;2023-03-20T04:48:15;99872.34;;;6.25;78.45
5755;BME280;2902;42.130;24.732;2023-03-20T04:50:42;99868.09;;;6.32;78.71
5755;BME280;2902;42.130;24.732;2023-03-20T04:53:11;99861.50;;;6.36;78.98
5755;BME280;2902;42.130;24.732;2023-03-20T04:55:37;99877.75;;;6.73;79.21
5755;BME280;2902;42.130;24.732;2023-03-20T04:58:04;99880.09;;;7.08;77.44
5755;BME280;2902;42.130;24.732;2023-03-20T05:00:31;99882.06;;;7.46;75.36
5755;BME280;2902;42.130;24.732;2023-03-20T05:02:59;99894.22;;;7.87;74.19
5755;BME280;2902;42.130;24.732;2023-03-20T05:05:26;99894.84;;;8.21;72.18
5755;BME280;2902;42.130;24.732;2023-03-20T05:07:53;99890.03;;;8.55;70.90
5755;BME280;2902;42.130;24.732;2023-03-20T05:10:20;99894.88;;;8.82;69.25
5755;BME280;2902;42.130;24.732;2023-03-20T05:12:47;99904.41;;;9.13;68.19
5755;BME280;2902;42.130;24.732;2023-03-20T05:15:14;99899.66;;;9.46;66.66
5755;BME280;2902;42.130;24.732;2023-03-20T05:17:41;99908.97;;;9.79;64.10
5755;BME280;2902;42.130;24.732;2023-03-20T05:20:09;99903.50;;;9.95;65.84
5755;BME280;2902;42.130;24.732;2023-03-20T05:22:36;99910.75;;;10.01;64.25
5755;BME280;2902;42.130;24.732;2023-03-20T05:25:03;99907.38;;;10.07;64.40
5755;BME280;2902;42.130;24.732;2023-03-20T05:27:30;99909.13;;;10.43;62.43
5755;BME280;2902;42.130;24.732;2023-03-20T05:33:18;99903.84;;;10.79;61.00
5755;BME280;2902;42.130;24.732;2023-03-20T05:35:47;99909.53;;;10.76;60.81
5755;BME280;2902;42.130;24.732;2023-03-20T05:38:13;99901.38;;;10.77;60.24
5755;BME280;2902;42.130;24.732;2023-03-20T05:40:40;99906.31;;;10.80;60.79
5755;BME280;2902;42.130;24.732;2023-03-20T05:43:07;99905.97;;;10.69;60.93
5755;BME280;2902;42.130;24.732;2023-03-20T05:45:34;99895.22;;;10.77;69.67
5755;BME280;2902;42.130;24.732;2023-03-20T05:48:00;99904.50;;;10.66;63.14
5755;BME280;2902;42.130;24.732;2023-03-20T05:50:27;99906.91;;;10.97;61.45
5755;BME280;2902;42.130;24.732;2023-03-20T05:52:55;99902.25;;;11.20;60.37
5755;BME280;2902;42.130;24.732;2023-03-20T05:55:22;99907.03;;;11.52;60.28
5755;BME280;2902;42.130;24.732;2023-03-20T05:57:49;99891.03;;;12.01;62.05
5755;BME280;2902;42.130;24.732;2023-03-20T06:00:16;99877.59;;;13.87;77.36
5755;BME280;2902;42.130;24.732;2023-03-20T06:02:43;99899.09;;;15.57;65.28
5755;BME280;2902;42.130;24.732;2023-03-20T06:05:10;99885.16;;;16.34;63.81
5755;BME280;2902;42.130;24.732;2023-03-20T06:07:37;99895.78;;;17.65;59.34
5755;BME280;2902;42.130;24.732;2023-03-20T06:10:06;99899.75;;;18.43;52.42
5755;BME280;2902;42.130;24.732;2023-03-20T06:12:32;99896.63;;;18.11;39.46
5755;BME280;2902;42.130;24.732;2023-03-20T06:14:59;99895.31;;;18.14;39.44
5755;BME280;2902;42.130;24.732;2023-03-20T06:17:26;99882.94;;;18.13;39.16
5755;BME280;2902;42.130;24.732;2023-03-20T06:19:53;99887.59;;;17.83;42.26
5755;BME280;2902;42.130;24.732;2023-03-20T06:22:20;99886.31;;;17.85;40.18
5755;BME280;2902;42.130;24.732;2023-03-20T06:24:46;99894.03;;;17.82;38.99
5755;BME280;2902;42.130;24.732;2023-03-20T06:27:14;99896.25;;;17.85;39.17
5755;BME280;2902;42.130;24.732;2023-03-20T06:29:41;99880.56;;;17.18;39.81
5755;BME280;2902;42.130;24.732;2023-03-20T06:32:08;99895.50;;;17.43;40.86
5755;BME280;2902;42.130;24.732;2023-03-20T06:34:36;99885.59;;;17.67;40.53
5755;BME280;2902;42.130;24.732;2023-03-20T06:37:03;99887.72;;;17.76;40.57
5755;BME280;2902;42.130;24.732;2023-03-20T06:39:30;99894.50;;;17.67;39.07
5755;BME280;2902;42.130;24.732;2023-03-20T06:41:57;99889.00;;;17.33;39.54
5755;BME280;2902;42.130;24.732;2023-03-20T06:44:25;99882.25;;;17.01;41.71
5755;BME280;2902;42.130;24.732;2023-03-20T06:46:52;99884.16;;;17.12;40.88
5755;BME280;2902;42.130;24.732;2023-03-20T06:49:19;99885.88;;;17.36;41.45
5755;BME280;2902;42.130;24.732;2023-03-20T06:51:45;99892.25;;;17.53;40.79
5755;BME280;2902;42.130;24.732;2023-03-20T06:54:14;99882.22;;;17.71;40.17
5755;BME280;2902;42.130;24.732;2023-03-20T06:56:40;99882.47;;;17.93;39.93
5755;BME280;2902;42.130;24.732;2023-03-20T06:59:07;99881.97;;;17.96;39.80
5755;BME280;2902;42.130;24.732;2023-03-20T07:01:35;99879.22;;;17.38;40.28
5755;BME280;2902;42.130;24.732;2023-03-20T07:04:02;99881.88;;;17.27;41.20
5755;BME280;2902;42.130;24.732;2023-03-20T07:06:28;99884.53;;;17.45;42.29
5755;BME280;2902;42.130;24.732;2023-03-20T07:08:55;99876.84;;;17.60;40.26
5755;BME280;2902;42.130;24.732;2023-03-20T07:11:22;99875.34;;;17.75;42.74
5755;BME280;2902;42.130;24.732;2023-03-20T07:13:48;99881.63;;;18.04;40.29
5755;BME280;2902;42.130;24.732;2023-03-20T07:16:15;99881.72;;;18.32;42.05
5755;BME280;2902;42.130;24.732;2023-03-20T07:18:43;99887.09;;;18.55;40.07
5755;BME280;2902;42.130;24.732;2023-03-20T07:21:13;99886.00;;;18.79;38.16
5755;BME280;2902;42.130;24.732;2023-03-20T07:23:42;99880.00;;;18.77;39.04
5755;BME280;2902;42.130;24.732;2023-03-20T07:26:09;99891.66;;;18.94;38.65
5755;BME280;2902;42.130;24.732;2023-03-20T07:28:36;99880.00;;;18.77;39.21
5755;BME280;2902;42.130;24.732;2023-03-20T07:31:03;99872.72;;;18.49;39.83
5755;BME280;2902;42.130;24.732;2023-03-20T07:33:30;99869.16;;;18.72;40.05
5755;BME280;2902;42.130;24.732;2023-03-20T07:35:58;99868.97;;;18.90;38.44
5755;BME280;2902;42.130;24.732;2023-03-20T07:38:25;99859.06;;;19.07;37.87
5755;BME280;2902;42.130;24.732;2023-03-20T07:40:52;99860.09;;;19.34;37.09
5755;BME280;2902;42.130;24.732;2023-03-20T07:43:20;99855.88;;;19.54;37.03
5755;BME280;2902;42.130;24.732;2023-03-20T07:45:47;99859.69;;;19.75;36.38
5755;BME280;2902;42.130;24.732;2023-03-20T07:48:14;99864.56;;;19.94;35.99
5755;BME280;2902;42.130;24.732;2023-03-20T07:50:40;99864.25;;;20.07;35.55
5755;BME280;2902;42.130;24.732;2023-03-20T07:53:08;99861.72;;;20.01;37.13
5755;BME280;2902;42.130;24.732;2023-03-20T07:55:35;99862.88;;;19.72;35.59
5755;BME280;2902;42.130;24.732;2023-03-20T07:58:02;99851.78;;;19.85;37.54
5755;BME280;2902;42.130;24.732;2023-03-20T08:00:28;99851.34;;;20.09;35.94
5755;BME280;2902;42.130;24.732;2023-03-20T08:02:55;99848.94;;;20.29;35.42
5755;BME280;2902;42.130;24.732;2023-03-20T08:05:22;99854.78;;;20.43;34.80
5755;BME280;2902;42.130;24.732;2023-03-20T08:07:49;99844.34;;;20.51;34.40
5755;BME280;2902;42.130;24.732;2023-03-20T08:10:17;99843.97;;;20.43;35.68
5755;BME280;2902;42.130;24.732;2023-03-20T08:12:44;99852.56;;;20.62;34.71
5755;BME280;2902;42.130;24.732;2023-03-20T08:15:11;99842.38;;;20.42;34.52
5755;BME280;2902;42.130;24.732;2023-03-20T08:17:41;99838.25;;;20.39;34.70
5755;BME280;2902;42.130;24.732;2023-03-20T08:20:09;99832.78;;;20.13;34.50
5755;BME280;2902;42.130;24.732;2023-03-20T08:22:36;99842.72;;;20.29;35.83
5755;BME280;2902;42.130;24.732;2023-03-20T08:25:03;99846.34;;;20.18;35.26
5755;BME280;2902;42.130;24.732;2023-03-20T08:27:31;99842.28;;;19.99;36.57
5755;BME280;2902;42.130;24.732;2023-03-20T08:29:58;99834.31;;;20.47;39.79
5755;BME280;2902;42.130;24.732;2023-03-20T08:32:25;99843.47;;;20.67;33.89
5755;BME280;2902;42.130;24.732;2023-03-20T08:34:52;99849.03;;;20.39;34.24
5755;BME280;2902;42.130;24.732;2023-03-20T08:37:20;99841.63;;;20.73;37.82
5755;BME280;2902;42.130;24.732;2023-03-20T08:39:46;99841.84;;;21.15;33.96
5755;BME280;2902;42.130;24.732;2023-03-20T08:42:13;99844.66;;;21.30;33.20
5755;BME280;2902;42.130;24.732;2023-03-20T08:44:42;99840.16;;;21.40;34.03
5755;BME280;2902;42.130;24.732;2023-03-20T08:47:09;99831.50;;;21.38;35.88
5755;BME280;2902;42.130;24.732;2023-03-20T08:49:36;99834.59;;;21.83;34.26
5755;BME280;2902;42.130;24.732;2023-03-20T08:52:03;99830.34;;;21.97;32.36
5755;BME280;2902;42.130;24.732;2023-03-20T08:54:30;99824.50;;;22.10;34.51
5755;BME280;2902;42.130;24.732;2023-03-20T08:56:58;99820.31;;;22.44;33.30
5755;BME280;2902;42.130;24.732;2023-03-20T08:59:24;99832.88;;;22.75;31.88
5755;BME280;2902;42.130;24.732;2023-03-20T09:01:52;99825.28;;;22.67;32.13
5755;BME280;2902;42.130;24.732;2023-03-20T09:04:19;99830.13;;;22.55;30.46
5755;BME280;2902;42.130;24.732;2023-03-20T09:06:46;99820.97;;;22.71;31.83
5755;BME280;2902;42.130;24.732;2023-03-20T09:09:13;99815.00;;;22.64;30.33
5755;BME280;2902;42.130;24.732;2023-03-20T09:11:42;99813.66;;;22.10;31.09
5755;BME280;2902;42.130;24.732;2023-03-20T09:14:10;99806.94;;;21.76;34.52
5755;BME280;2902;42.130;24.732;2023-03-20T09:16:37;99804.19;;;21.35;32.63
5755;BME280;2902;42.130;24.732;2023-03-20T09:19:05;99797.00;;;21.50;34.32
5755;BME280;2902;42.130;24.732;2023-03-20T09:21:32;99797.78;;;21.46;32.66
5755;BME280;2902;42.130;24.732;2023-03-20T09:23:58;99799.84;;;21.02;33.57
5755;BME280;2902;42.130;24.732;2023-03-20T09:26:25;99797.09;;;20.97;33.98
5755;BME280;2902;42.130;24.732;2023-03-20T09:28:52;99798.25;;;21.38;35.64
5755;BME280;2902;42.130;24.732;2023-03-20T09:31:18;99796.97;;;21.77;33.54
5755;BME280;2902;42.130;24.732;2023-03-20T09:33:45;99793.16;;;22.24;33.06
5755;BME280;2902;42.130;24.732;2023-03-20T09:36:13;99798.22;;;22.11;31.21
5755;BME280;2902;42.130;24.732;2023-03-20T09:38:40;99785.91;;;21.83;35.28
5755;BME280;2902;42.130;24.732;2023-03-20T09:41:13;99782.84;;;22.21;33.38
5755;BME280;2902;42.130;24.732;2023-03-20T09:43:50;99778.59;;;22.45;31.32
5755;BME280;2902;42.130;24.732;2023-03-20T09:46:31;99773.28;;;22.65;34.05
5755;BME280;2902;42.130;24.732;2023-03-20T09:49:06;99766.28;;;22.94;35.50
5755;BME280;2902;42.130;24.732;2023-03-20T09:51:41;99750.59;;;23.01;31.32
5755;BME280;2902;42.130;24.732;2023-03-20T09:54:17;99768.22;;;23.34;31.95
5755;BME280;2902;42.130;24.732;2023-03-20T09:56:48;99761.97;;;23.58;32.51
5755;BME280;2902;42.130;24.732;2023-03-20T09:59:17;99757.59;;;23.82;32.24
5755;BME280;2902;42.130;24.732;2023-03-20T10:01:48;99757.53;;;24.02;31.30
5755;BME280;2902;42.130;24.732;2023-03-20T10:04:16;99748.31;;;23.98;31.84
5755;BME280;2902;42.130;24.732;2023-03-20T10:06:44;99749.38;;;24.12;30.95
5755;BME280;2902;42.130;24.732;2023-03-20T10:09:15;99747.28;;;23.74;29.29
5755;BME280;2902;42.130;24.732;2023-03-20T10:12:15;99743.44;;;23.85;30.96
5755;BME280;2902;42.130;24.732;2023-03-20T10:14:52;99743.75;;;23.94;28.68
5755;BME280;2902;42.130;24.732;2023-03-20T10:17:32;99728.16;;;24.14;31.92
5755;BME280;2902;42.130;24.732;2023-03-20T10:20:10;99733.59;;;24.14;30.41
5755;BME280;2902;42.130;24.732;2023-03-20T10:22:41;99730.97;;;23.99;29.59
5755;BME280;2902;42.130;24.732;2023-03-20T10:25:21;99726.69;;;23.63;30.15
5755;BME280;2902;42.130;24.732;2023-03-20T10:27:50;99729.66;;;22.57;31.08
5755;BME280;2902;42.130;24.732;2023-03-20T10:30:27;99714.53;;;22.66;31.09
5755;BME280;2902;42.130;24.732;2023-03-20T10:33:08;99716.53;;;22.24;31.87
5755;BME280;2902;42.130;24.732;2023-03-20T10:35:41;99709.81;;;22.36;31.76
5755;BME280;2902;42.130;24.732;2023-03-20T10:38:25;99703.84;;;22.34;31.42
5755;BME280;2902;42.130;24.732;2023-03-20T10:40:57;99694.19;;;22.53;30.78
5755;BME280;2902;42.130;24.732;2023-03-20T10:46:50;99674.69;;;22.66;31.10
5755;BME280;2902;42.130;24.732;2023-03-20T10:49:19;99677.44;;;22.76;30.80
5755;BME280;2902;42.130;24.732;2023-03-20T10:51:54;99662.53;;;22.84;30.82
5755;BME280;2902;42.130;24.732;2023-03-20T10:54:27;99663.59;;;22.98;31.74
5755;BME280;2902;42.130;24.732;2023-03-20T10:56:58;99642.19;;;23.21;36.91
5755;BME280;2902;42.130;24.732;2023-03-20T10:59:27;99658.44;;;23.31;32.03
5755;BME280;2902;42.130;24.732;2023-03-20T11:01:54;99657.38;;;22.97;33.12
5755;BME280;2902;42.130;24.732;2023-03-20T11:04:21;99652.19;;;23.41;32.29
5755;BME280;2902;42.130;24.732;2023-03-20T11:06:53;99641.09;;;23.37;31.30
5755;BME280;2902;42.130;24.732;2023-03-20T11:09:25;99636.19;;;23.19;31.87
5755;BME280;2902;42.130;24.732;2023-03-20T11:11:56;99625.31;;;23.44;34.58
5755;BME280;2902;42.130;24.732;2023-03-20T11:14:25;99626.38;;;23.58;35.74
5755;BME280;2902;42.130;24.732;2023-03-20T11:16:53;99631.72;;;23.73;31.17
5755;BME280;2902;42.130;24.732;2023-03-20T11:19:23;99619.47;;;23.81;35.34
5755;BME280;2902;42.130;24.732;2023-03-20T11:21:53;99622.50;;;23.69;30.04
5755;BME280;2902;42.130;24.732;2023-03-20T11:24:32;99609.72;;;23.75;32.57
5755;BME280;2902;42.130;24.732;2023-03-20T11:27:05;99600.69;;;23.89;32.96
5755;BME280;2902;42.130;24.732;2023-03-20T11:29:32;99598.13;;;23.64;31.28
5755;BME280;2902;42.130;24.732;2023-03-20T11:32:05;99599.19;;;23.68;30.81
5755;BME280;2902;42.130;24.732;2023-03-20T11:34:36;99554.78;;;23.49;29.11
5755;BME280;2902;42.130;24.732;2023-03-20T11:37:17;99590.19;;;23.78;28.77
5755;BME280;2902;42.130;24.732;2023-03-20T11:39:56;99582.66;;;23.65;29.73
5755;BME280;2902;42.130;24.732;2023-03-20T11:42:24;99574.28;;;23.56;29.50
5755;BME280;2902;42.130;24.732;2023-03-20T11:44:59;99569.41;;;23.53;28.86
5755;BME280;2902;42.130;24.732;2023-03-20T11:47:29;99575.91;;;23.57;28.95
5755;BME280;2902;42.130;24.732;2023-03-20T11:49:59;99567.97;;;22.92;29.40
5755;BME280;2902;42.130;24.732;2023-03-20T11:52:28;99570.16;;;22.70;29.71
5755;BME280;2902;42.130;24.732;2023-03-20T11:55:00;99556.66;;;22.55;29.50
5755;BME280;2902;42.130;24.732;2023-03-20T11:57:31;99552.81;;;22.31;30.46
5755;BME280;2902;42.130;24.732;2023-03-20T12:00:04;99549.56;;;22.44;30.62
5755;BME280;2902;42.130;24.732;2023-03-20T12:02:32;99540.94;;;22.52;30.90
5755;BME280;2902;42.130;24.732;2023-03-20T12:05:02;99543.09;;;22.50;30.60
5755;BME280;2902;42.130;24.732;2023-03-20T12:07:44;99535.25;;;22.49;30.77
5755;BME280;2902;42.130;24.732;2023-03-20T12:10:13;99539.84;;;22.48;31.04
5755;BME280;2902;42.130;24.732;2023-03-20T12:12:47;99539.28;;;22.26;31.46
5755;BME280;2902;42.130;24.732;2023-03-20T12:15:17;99521.97;;;22.17;31.31
5755;BME280;2902;42.130;24.732;2023-03-20T12:17:52;99520.06;;;22.03;31.85
5755;BME280;2902;42.130;24.732;2023-03-20T12:20:31;99523.84;;;22.12;31.66
5755;BME280;2902;42.130;24.732;2023-03-20T12:23:09;99519.50;;;22.16;31.55
5755;BME280;2902;42.130;24.732;2023-03-20T12:25:42;99530.63;;;22.14;31.45
5755;BME280;2902;42.130;24.732;2023-03-20T12:28:13;99518.16;;;22.33;30.81
5755;BME280;2902;42.130;24.732;2023-03-20T12:30:58;99508.19;;;22.29;31.35
5755;BME280;2902;42.130;24.732;2023-03-20T12:33:39;99512.75;;;22.33;31.40
5755;BME280;2902;42.130;24.732;2023-03-20T12:36:13;99517.09;;;22.44;31.35
5755;BME280;2902;42.130;24.732;2023-03-20T12:38:41;99500.31;;;22.37;31.13
5755;BME280;2902;42.130;24.732;2023-03-20T12:41:13;99503.00;;;22.37;31.19
5755;BME280;2902;42.130;24.732;2023-03-20T12:47:00;99498.97;;;22.10;31.72
5755;BME280;2902;42.130;24.732;2023-03-20T12:49:40;99493.53;;;22.20;31.23
5755;BME280;2902;42.130;24.732;2023-03-20T12:52:14;99491.13;;;22.23;31.43
5755;BME280;2902;42.130;24.732;2023-03-20T12:54:59;99488.41;;;22.33;31.16
5755;BME280;2902;42.130;24.732;2023-03-20T12:57:36;99491.09;;;22.43;31.25
5755;BME280;2902;42.130;24.732;2023-03-20T13:00:17;99481.38;;;22.52;30.83
5755;BME280;2902;42.130;24.732;2023-03-20T13:02:55;99471.09;;;22.59;30.78
5755;BME280;2902;42.130;24.732;2023-03-20T13:05:32;99482.41;;;22.66;30.66
5755;BME280;2902;42.130;24.732;2023-03-20T13:08:12;99470.22;;;22.74;30.01
5755;BME280;2902;42.130;24.732;2023-03-20T13:10:49;99473.19;;;22.67;30.19
5755;BME280;2902;42.130;24.732;2023-03-20T13:13:27;99470.78;;;22.66;30.19
5755;BME280;2902;42.130;24.732;2023-03-20T13:16:07;99454.78;;;22.69;30.09
5755;BME280;2902;42.130;24.732;2023-03-20T13:18:46;99463.50;;;22.56;30.23
5755;BME280;2902;42.130;24.732;2023-03-20T13:21:21;99460.25;;;22.59;30.04
5755;BME280;2902;42.130;24.732;2023-03-20T13:23:55;99448.84;;;22.62;30.07
5755;BME280;2902;42.130;24.732;2023-03-20T13:26:33;99460.22;;;22.69;29.70
5755;BME280;2902;42.130;24.732;2023-03-20T13:29:09;99447.22;;;22.61;30.03
5755;BME280;2902;42.130;24.732;2023-03-20T13:31:51;99439.13;;;22.56;30.16
5755;BME280;2902;42.130;24.732;2023-03-20T13:34:29;99449.97;;;22.46;29.99
5755;BME280;2902;42.130;24.732;2023-03-20T13:37:07;99445.09;;;22.43;30.17
5755;BME280;2902;42.130;24.732;2023-03-20T13:42:29;99421.53;;;22.49;36.96
5755;BME280;2902;42.130;24.732;2023-03-20T13:45:24;99435.88;;;22.54;32.55
5755;BME280;2902;42.130;24.732;2023-03-20T13:47:57;99419.13;;;22.47;30.92
5755;BME280;2902;42.130;24.732;2023-03-20T13:50:36;99423.69;;;22.62;36.50
5755;BME280;2902;42.130;24.732;2023-03-20T13:53:10;99422.31;;;22.64;32.19
5755;BME280;2902;42.130;24.732;2023-03-20T13:55:44;99417.16;;;22.63;32.95